sensor_id;sensor_type;location;lat;lon;timestamp;P1;durP1;ratioP1;P2;durP2;ratioP2
53971;SDS011;40530;53.062;6.078;2022-12-29T00:00:53;5.45;;;3.95;;
53971;SDS011;40530;53.062;6.078;2022-12-29T00:03:19;4.57;;;3.80;;
53971;SDS011;40530;53.062;6.078;2022-12-29T00:05:45;5.13;;;4.18;;
53971;SDS011;40530;53.062;6.078;2022-12-29T00:08:11;4.43;;;4.03;;
53971;SDS011;40530;53.062;6.078;2022-12-29T00:10:37;6.45;;;3.47;;
53971;SDS011;40530;53.062;6.078;2022-12-29T00:13:02;3.50;;;3.20;;
53971;SDS011;40530;53.062;6.078;2022-12-29T00:15:47;5.00;;;3.58;;
53971;SDS011;40530;53.062;6.078;2022-12-29T00:18:13;3.70;;;3.03;;
53971;SDS011;40530;53.062;6.078;2022-12-29T00:20:39;5.40;;;3.92;;
53971;SDS011;40530;53.062;6.078;2022-12-29T00:23:24;7.38;;;3.40;;
53971;SDS011;40530;53.062;6.078;2022-12-29T00:26:10;4.05;;;3.67;;
53971;SDS011;40530;53.062;6.078;2022-12-29T00:29:03;4.70;;;3.90;;
53971;SDS011;40530;53.062;6.078;2022-12-29T00:31:48;3.47;;;3.05;;
53971;SDS011;40530;53.062;6.078;2022-12-29T00:34:32;4.55;;;3.85;;
53971;SDS011;40530;53.062;6.078;2022-12-29T00:37:17;3.67;;;3.38;;
53971;SDS011;40530;53.062;6.078;2022-12-29T00:40:04;4.95;;;3.45;;
53971;SDS011;40530;53.062;6.078;2022-12-29T00:42:50;4.78;;;3.35;;
53971;SDS011;40530;53.062;6.078;2022-12-29T00:45:35;5.85;;;3.20;;
53971;SDS011;40530;53.062;6.078;2022-12-29T00:48:01;5.78;;;3.90;;
53971;SDS011;40530;53.062;6.078;2022-12-29T00:50:27;6.32;;;3.78;;
53971;SDS011;40530;53.062;6.078;2022-12-29T00:52:53;3.90;;;3.40;;
53971;SDS011;40530;53.062;6.078;2022-12-29T00:55:19;4.38;;;3.05;;
53971;SDS011;40530;53.062;6.078;2022-12-29T00:57:46;5.45;;;3.60;;
53971;SDS011;40530;53.062;6.078;2022-12-29T01:00:12;4.85;;;3.35;;
53971;SDS011;40530;53.062;6.078;2022-12-29T01:02:38;3.30;;;3.03;;
53971;SDS011;40530;53.062;6.078;2022-12-29T01:05:04;4.78;;;2.78;;
53971;SDS011;40530;53.062;6.078;2022-12-29T01:07:30;3.78;;;2.70;;
53971;SDS011;40530;53.062;6.078;2022-12-29T01:09:56;4.43;;;3.35;;
53971;SDS011;40530;53.062;6.078;2022-12-29T01:12:37;4.90;;;3.60;;
53971;SDS011;40530;53.062;6.078;2022-12-29T01:15:07;3.50;;;3.20;;
53971;SDS011;40530;53.062;6.078;2022-12-29T01:17:33;3.95;;;3.30;;
53971;SDS011;40530;53.062;6.078;2022-12-29T01:19:59;6.75;;;3.95;;
53971;SDS011;40530;53.062;6.078;2022-12-29T01:22:25;4.18;;;3.35;;
53971;SDS011;40530;53.062;6.078;2022-12-29T01:24:51;4.70;;;3.25;;
53971;SDS011;40530;53.062;6.078;2022-12-29T01:27:17;6.90;;;3.53;;
53971;SDS011;40530;53.062;6.078;2022-12-29T01:29:43;5.20;;;3.97;;
53971;SDS011;40530;53.062;6.078;2022-12-29T01:32:09;4.68;;;3.72;;
53971;SDS011;40530;53.062;6.078;2022-12-29T01:34:35;4.63;;;4.15;;
53971;SDS011;40530;53.062;6.078;2022-12-29T01:37:01;5.28;;;4.20;;
53971;SDS011;40530;53.062;6.078;2022-12-29T01:39:27;7.50;;;4.10;;
53971;SDS011;40530;53.062;6.078;2022-12-29T01:41:53;7.85;;;4.63;;
53971;SDS011;40530;53.062;6.078;2022-12-29T01:47:03;5.35;;;4.50;;
53971;SDS011;40530;53.062;6.078;2022-12-29T01:49:29;5.32;;;4.13;;
53971;SDS011;40530;53.062;6.078;2022-12-29T01:51:57;6.95;;;4.57;;
53971;SDS011;40530;53.062;6.078;2022-12-29T01:54:28;6.78;;;4.20;;
53971;SDS011;40530;53.062;6.078;2022-12-29T01:56:55;9.73;;;4.70;;
53971;SDS011;40530;53.062;6.078;2022-12-29T01:59:24;5.65;;;4.80;;
53971;SDS011;40530;53.062;6.078;2022-12-29T02:01:52;6.35;;;4.28;;
53971;SDS011;40530;53.062;6.078;2022-12-29T02:04:18;5.30;;;4.78;;
53971;SDS011;40530;53.062;6.078;2022-12-29T02:06:46;6.43;;;4.47;;
53971;SDS011;40530;53.062;6.078;2022-12-29T02:09:14;7.63;;;3.78;;
53971;SDS011;40530;53.062;6.078;2022-12-29T02:11:40;4.32;;;3.53;;
53971;SDS011;40530;53.062;6.078;2022-12-29T02:14:12;7.07;;;3.55;;
53971;SDS011;40530;53.062;6.078;2022-12-29T02:24:40;2.80;;;2.60;;
53971;SDS011;40530;53.062;6.078;2022-12-29T02:37:22;5.38;;;2.33;;
53971;SDS011;40530;53.062;6.078;2022-12-29T02:44:55;5.25;;;2.17;;
53971;SDS011;40530;53.062;6.078;2022-12-29T02:52:24;1.90;;;1.25;;
53971;SDS011;40530;53.062;6.078;2022-12-29T02:54:53;4.68;;;1.20;;
53971;SDS011;40530;53.062;6.078;2022-12-29T02:59:46;2.90;;;1.10;;
53971;SDS011;40530;53.062;6.078;2022-12-29T03:02:36;3.67;;;1.30;;
53971;SDS011;40530;53.062;6.078;2022-12-29T03:15:53;3.42;;;1.17;;
53971;SDS011;40530;53.062;6.078;2022-12-29T03:18:34;5.90;;;1.45;;
53971;SDS011;40530;53.062;6.078;2022-12-29T03:21:05;2.90;;;1.08;;
53971;SDS011;40530;53.062;6.078;2022-12-29T03:23:33;2.85;;;0.95;;
53971;SDS011;40530;53.062;6.078;2022-12-29T03:26:01;4.38;;;0.88;;
53971;SDS011;40530;53.062;6.078;2022-12-29T03:28:32;9.55;;;0.88;;
53971;SDS011;40530;53.062;6.078;2022-12-29T03:31:00;3.92;;;1.00;;
53971;SDS011;40530;53.062;6.078;2022-12-29T03:33:28;4.68;;;0.95;;
53971;SDS011;40530;53.062;6.078;2022-12-29T03:35:59;5.10;;;1.00;;
53971;SDS011;40530;53.062;6.078;2022-12-29T03:38:27;3.75;;;1.10;;
53971;SDS011;40530;53.062;6.078;2022-12-29T03:40:56;3.63;;;1.95;;
53971;SDS011;40530;53.062;6.078;2022-12-29T03:43:23;5.85;;;1.13;;
53971;SDS011;40530;53.062;6.078;2022-12-29T03:45:50;4.90;;;1.00;;
53971;SDS011;40530;53.062;6.078;2022-12-29T03:48:16;9.60;;;1.60;;
53971;SDS011;40530;53.062;6.078;2022-12-29T03:50:42;4.15;;;1.00;;
53971;SDS011;40530;53.062;6.078;2022-12-29T03:53:08;4.82;;;1.00;;
53971;SDS011;40530;53.062;6.078;2022-12-29T03:55:34;5.38;;;1.10;;
53971;SDS011;40530;53.062;6.078;2022-12-29T03:58:00;7.00;;;1.10;;
53971;SDS011;40530;53.062;6.078;2022-12-29T04:00:26;9.68;;;3.03;;
53971;SDS011;40530;53.062;6.078;2022-12-29T04:02:53;7.47;;;1.15;;
53971;SDS011;40530;53.062;6.078;2022-12-29T04:05:19;3.35;;;0.85;;
53971;SDS011;40530;53.062;6.078;2022-12-29T04:07:45;3.92;;;0.90;;
53971;SDS011;40530;53.062;6.078;2022-12-29T04:10:11;6.75;;;1.15;;
53971;SDS011;40530;53.062;6.078;2022-12-29T04:12:37;3.83;;;1.25;;
53971;SDS011;40530;53.062;6.078;2022-12-29T04:15:04;7.38;;;1.75;;
53971;SDS011;40530;53.062;6.078;2022-12-29T04:17:30;6.57;;;0.90;;
53971;SDS011;40530;53.062;6.078;2022-12-29T04:19:56;11.27;;;1.27;;
53971;SDS011;40530;53.062;6.078;2022-12-29T04:22:42;5.43;;;1.05;;
53971;SDS011;40530;53.062;6.078;2022-12-29T04:25:08;7.18;;;1.20;;
53971;SDS011;40530;53.062;6.078;2022-12-29T04:27:34;4.65;;;0.88;;
53971;SDS011;40530;53.062;6.078;2022-12-29T04:30:00;5.80;;;1.13;;
53971;SDS011;40530;53.062;6.078;2022-12-29T04:32:26;5.47;;;1.13;;
53971;SDS011;40530;53.062;6.078;2022-12-29T04:34:52;9.70;;;1.10;;
53971;SDS011;40530;53.062;6.078;2022-12-29T04:37:18;8.35;;;1.25;;
53971;SDS011;40530;53.062;6.078;2022-12-29T04:39:44;6.20;;;1.20;;
53971;SDS011;40530;53.062;6.078;2022-12-29T04:42:10;9.63;;;1.10;;
53971;SDS011;40530;53.062;6.078;2022-12-29T04:44:36;7.35;;;1.13;;
53971;SDS011;40530;53.062;6.078;2022-12-29T04:47:02;4.47;;;0.82;;
53971;SDS011;40530;53.062;6.078;2022-12-29T04:49:28;10.85;;;2.17;;
53971;SDS011;40530;53.062;6.078;2022-12-29T04:51:54;8.75;;;1.70;;
53971;SDS011;40530;53.062;6.078;2022-12-29T04:54:20;7.28;;;2.10;;
53971;SDS011;40530;53.062;6.078;2022-12-29T04:56:46;15.75;;;2.05;;
53971;SDS011;40530;53.062;6.078;2022-12-29T04:59:12;12.95;;;1.70;;
53971;SDS011;40530;53.062;6.078;2022-12-29T05:01:37;19.33;;;3.42;;
53971;SDS011;40530;53.062;6.078;2022-12-29T05:04:04;8.98;;;1.67;;
53971;SDS011;40530;53.062;6.078;2022-12-29T05:06:30;9.88;;;1.17;;
53971;SDS011;40530;53.062;6.078;2022-12-29T05:08:56;9.43;;;1.45;;
53971;SDS011;40530;53.062;6.078;2022-12-29T05:11:22;9.57;;;1.52;;
53971;SDS011;40530;53.062;6.078;2022-12-29T05:13:48;7.93;;;1.65;;
53971;SDS011;40530;53.062;6.078;2022-12-29T05:16:14;11.35;;;2.63;;
53971;SDS011;40530;53.062;6.078;2022-12-29T05:18:40;12.45;;;1.90;;
53971;SDS011;40530;53.062;6.078;2022-12-29T05:21:06;14.73;;;1.90;;
53971;SDS011;40530;53.062;6.078;2022-12-29T05:23:32;9.30;;;1.58;;
53971;SDS011;40530;53.062;6.078;2022-12-29T05:25:57;10.85;;;1.92;;
53971;SDS011;40530;53.062;6.078;2022-12-29T05:28:23;15.27;;;3.70;;
53971;SDS011;40530;53.062;6.078;2022-12-29T05:30:50;16.85;;;3.70;;
53971;SDS011;40530;53.062;6.078;2022-12-29T05:33:19;14.57;;;2.20;;
53971;SDS011;40530;53.062;6.078;2022-12-29T05:35:45;17.77;;;2.58;;
53971;SDS011;40530;53.062;6.078;2022-12-29T05:38:12;11.43;;;2.13;;
53971;SDS011;40530;53.062;6.078;2022-12-29T05:40:38;11.05;;;2.22;;
53971;SDS011;40530;53.062;6.078;2022-12-29T05:43:04;13.68;;;1.77;;
53971;SDS011;40530;53.062;6.078;2022-12-29T05:45:30;10.85;;;3.00;;
53971;SDS011;40530;53.062;6.078;2022-12-29T05:47:56;12.13;;;2.42;;
53971;SDS011;40530;53.062;6.078;2022-12-29T05:50:22;19.10;;;3.25;;
53971;SDS011;40530;53.062;6.078;2022-12-29T05:52:48;11.07;;;2.30;;
53971;SDS011;40530;53.062;6.078;2022-12-29T05:55:14;13.95;;;2.35;;
53971;SDS011;40530;53.062;6.078;2022-12-29T05:57:40;11.95;;;2.47;;
53971;SDS011;40530;53.062;6.078;2022-12-29T06:00:06;9.07;;;1.60;;
53971;SDS011;40530;53.062;6.078;2022-12-29T06:02:32;21.55;;;2.55;;
53971;SDS011;40530;53.062;6.078;2022-12-29T06:04:58;11.15;;;3.40;;
53971;SDS011;40530;53.062;6.078;2022-12-29T06:07:24;17.17;;;3.25;;
53971;SDS011;40530;53.062;6.078;2022-12-29T06:09:50;15.05;;;2.70;;
53971;SDS011;40530;53.062;6.078;2022-12-29T06:12:16;11.93;;;2.13;;
53971;SDS011;40530;53.062;6.078;2022-12-29T06:14:42;20.80;;;3.20;;
53971;SDS011;40530;53.062;6.078;2022-12-29T06:17:08;24.00;;;2.97;;
53971;SDS011;40530;53.062;6.078;2022-12-29T06:19:34;14.25;;;2.17;;
53971;SDS011;40530;53.062;6.078;2022-12-29T06:22:00;23.00;;;3.58;;
53971;SDS011;40530;53.062;6.078;2022-12-29T06:24:26;15.45;;;2.75;;
53971;SDS011;40530;53.062;6.078;2022-12-29T06:26:53;14.30;;;2.30;;
53971;SDS011;40530;53.062;6.078;2022-12-29T06:29:18;26.80;;;3.92;;
53971;SDS011;40530;53.062;6.078;2022-12-29T06:31:45;13.38;;;2.58;;
53971;SDS011;40530;53.062;6.078;2022-12-29T06:34:12;20.85;;;2.67;;
53971;SDS011;40530;53.062;6.078;2022-12-29T06:36:38;17.35;;;2.80;;
53971;SDS011;40530;53.062;6.078;2022-12-29T06:39:04;17.73;;;3.50;;
53971;SDS011;40530;53.062;6.078;2022-12-29T06:41:31;22.02;;;4.03;;
53971;SDS011;40530;53.062;6.078;2022-12-29T06:43:57;20.23;;;3.13;;
53971;SDS011;40530;53.062;6.078;2022-12-29T06:46:23;14.88;;;2.05;;
53971;SDS011;40530;53.062;6.078;2022-12-29T06:48:49;23.15;;;3.20;;
53971;SDS011;40530;53.062;6.078;2022-12-29T06:51:15;17.58;;;3.90;;
53971;SDS011;40530;53.062;6.078;2022-12-29T06:53:41;13.77;;;3.10;;
53971;SDS011;40530;53.062;6.078;2022-12-29T06:56:07;21.05;;;3.38;;
53971;SDS011;40530;53.062;6.078;2022-12-29T06:58:33;20.35;;;3.42;;
53971;SDS011;40530;53.062;6.078;2022-12-29T07:00:59;14.70;;;2.55;;
53971;SDS011;40530;53.062;6.078;2022-12-29T07:03:25;17.95;;;3.25;;
53971;SDS011;40530;53.062;6.078;2022-12-29T07:05:51;22.13;;;3.03;;
53971;SDS011;40530;53.062;6.078;2022-12-29T07:08:19;17.52;;;2.55;;
53971;SDS011;40530;53.062;6.078;2022-12-29T07:10:45;21.73;;;2.58;;
53971;SDS011;40530;53.062;6.078;2022-12-29T07:13:11;20.38;;;2.97;;
53971;SDS011;40530;53.062;6.078;2022-12-29T07:15:37;19.27;;;3.33;;
53971;SDS011;40530;53.062;6.078;2022-12-29T07:18:04;18.73;;;2.47;;
53971;SDS011;40530;53.062;6.078;2022-12-29T07:20:30;18.73;;;2.17;;
53971;SDS011;40530;53.062;6.078;2022-12-29T07:22:56;15.45;;;2.55;;
53971;SDS011;40530;53.062;6.078;2022-12-29T07:25:22;9.18;;;2.10;;
53971;SDS011;40530;53.062;6.078;2022-12-29T07:27:48;14.52;;;3.08;;
53971;SDS011;40530;53.062;6.078;2022-12-29T07:30:14;22.98;;;2.78;;
53971;SDS011;40530;53.062;6.078;2022-12-29T07:32:40;17.05;;;3.72;;
53971;SDS011;40530;53.062;6.078;2022-12-29T07:35:06;12.55;;;2.35;;
53971;SDS011;40530;53.062;6.078;2022-12-29T07:37:33;18.38;;;2.83;;
53971;SDS011;40530;53.062;6.078;2022-12-29T07:40:00;15.27;;;2.38;;
53971;SDS011;40530;53.062;6.078;2022-12-29T07:42:26;15.70;;;3.33;;
53971;SDS011;40530;53.062;6.078;2022-12-29T07:44:52;22.20;;;4.60;;
53971;SDS011;40530;53.062;6.078;2022-12-29T07:47:18;23.52;;;3.70;;
53971;SDS011;40530;53.062;6.078;2022-12-29T07:49:44;18.52;;;3.10;;
53971;SDS011;40530;53.062;6.078;2022-12-29T07:52:10;17.27;;;2.72;;
53971;SDS011;40530;53.062;6.078;2022-12-29T07:54:36;18.65;;;3.22;;
53971;SDS011;40530;53.062;6.078;2022-12-29T07:57:03;27.48;;;3.10;;
53971;SDS011;40530;53.062;6.078;2022-12-29T07:59:29;14.15;;;2.65;;
53971;SDS011;40530;53.062;6.078;2022-12-29T08:01:55;22.33;;;3.88;;
53971;SDS011;40530;53.062;6.078;2022-12-29T08:04:21;14.45;;;2.78;;
53971;SDS011;40530;53.062;6.078;2022-12-29T08:06:47;23.70;;;4.18;;
53971;SDS011;40530;53.062;6.078;2022-12-29T08:09:13;16.63;;;3.53;;
53971;SDS011;40530;53.062;6.078;2022-12-29T08:11:39;24.55;;;5.45;;
53971;SDS011;40530;53.062;6.078;2022-12-29T08:14:05;20.23;;;4.97;;
53971;SDS011;40530;53.062;6.078;2022-12-29T08:16:31;22.02;;;3.50;;
53971;SDS011;40530;53.062;6.078;2022-12-29T08:18:57;25.45;;;6.90;;
53971;SDS011;40530;53.062;6.078;2022-12-29T08:21:24;19.60;;;3.80;;
53971;SDS011;40530;53.062;6.078;2022-12-29T08:23:50;20.00;;;2.92;;
53971;SDS011;40530;53.062;6.078;2022-12-29T08:26:16;27.13;;;3.65;;
53971;SDS011;40530;53.062;6.078;2022-12-29T08:28:42;17.67;;;3.55;;
53971;SDS011;40530;53.062;6.078;2022-12-29T08:31:08;27.15;;;3.17;;
53971;SDS011;40530;53.062;6.078;2022-12-29T08:33:34;26.15;;;3.45;;
53971;SDS011;40530;53.062;6.078;2022-12-29T08:36:00;21.77;;;3.58;;
53971;SDS011;40530;53.062;6.078;2022-12-29T08:38:28;27.23;;;4.65;;
53971;SDS011;40530;53.062;6.078;2022-12-29T08:40:54;21.05;;;4.38;;
53971;SDS011;40530;53.062;6.078;2022-12-29T08:43:20;29.13;;;4.18;;
53971;SDS011;40530;53.062;6.078;2022-12-29T08:45:46;18.90;;;3.25;;
53971;SDS011;40530;53.062;6.078;2022-12-29T08:48:12;20.63;;;3.80;;
53971;SDS011;40530;53.062;6.078;2022-12-29T08:50:38;32.72;;;5.15;;
53971;SDS011;40530;53.062;6.078;2022-12-29T08:53:04;21.65;;;4.05;;
53971;SDS011;40530;53.062;6.078;2022-12-29T08:55:30;35.90;;;6.25;;
53971;SDS011;40530;53.062;6.078;2022-12-29T08:57:56;36.20;;;5.78;;
53971;SDS011;40530;53.062;6.078;2022-12-29T09:00:22;22.80;;;5.00;;
53971;SDS011;40530;53.062;6.078;2022-12-29T09:02:48;23.63;;;4.28;;
53971;SDS011;40530;53.062;6.078;2022-12-29T09:05:14;30.83;;;4.25;;
53971;SDS011;40530;53.062;6.078;2022-12-29T09:07:40;22.50;;;4.57;;
53971;SDS011;40530;53.062;6.078;2022-12-29T09:10:06;25.85;;;4.15;;
53971;SDS011;40530;53.062;6.078;2022-12-29T09:12:32;33.30;;;5.32;;
53971;SDS011;40530;53.062;6.078;2022-12-29T09:14:58;25.58;;;4.30;;
53971;SDS011;40530;53.062;6.078;2022-12-29T09:17:24;21.45;;;3.92;;
53971;SDS011;40530;53.062;6.078;2022-12-29T09:20:09;22.42;;;4.45;;
53971;SDS011;40530;53.062;6.078;2022-12-29T09:22:36;26.42;;;3.90;;
53971;SDS011;40530;53.062;6.078;2022-12-29T09:25:02;21.10;;;4.63;;
53971;SDS011;40530;53.062;6.078;2022-12-29T09:27:28;21.90;;;3.03;;
53971;SDS011;40530;53.062;6.078;2022-12-29T09:29:55;23.58;;;3.90;;
53971;SDS011;40530;53.062;6.078;2022-12-29T09:32:21;25.63;;;4.70;;
53971;SDS011;40530;53.062;6.078;2022-12-29T09:34:47;23.23;;;4.40;;
53971;SDS011;40530;53.062;6.078;2022-12-29T09:37:13;19.77;;;2.50;;
53971;SDS011;40530;53.062;6.078;2022-12-29T09:39:39;16.73;;;3.60;;
53971;SDS011;40530;53.062;6.078;2022-12-29T09:47:19;17.13;;;3.10;;
53971;SDS011;40530;53.062;6.078;2022-12-29T09:49:48;13.90;;;3.08;;
53971;SDS011;40530;53.062;6.078;2022-12-29T09:52:20;24.35;;;3.53;;
53971;SDS011;40530;53.062;6.078;2022-12-29T09:54:56;18.90;;;1.92;;
53971;SDS011;40530;53.062;6.078;2022-12-29T09:57:24;27.48;;;3.85;;
53971;SDS011;40530;53.062;6.078;2022-12-29T09:59:52;18.63;;;3.05;;
53971;SDS011;40530;53.062;6.078;2022-12-29T10:02:31;25.10;;;4.45;;
53971;SDS011;40530;53.062;6.078;2022-12-29T10:04:58;17.70;;;3.35;;
53971;SDS011;40530;53.062;6.078;2022-12-29T10:08:25;14.80;;;3.40;;
53971;SDS011;40530;53.062;6.078;2022-12-29T10:13:02;17.85;;;4.88;;
53971;SDS011;40530;53.062;6.078;2022-12-29T10:15:33;22.63;;;3.08;;
53971;SDS011;40530;53.062;6.078;2022-12-29T10:25:29;16.25;;;3.03;;
53971;SDS011;40530;53.062;6.078;2022-12-29T10:27:57;19.50;;;3.50;;
53971;SDS011;40530;53.062;6.078;2022-12-29T10:30:24;25.48;;;4.20;;
53971;SDS011;40530;53.062;6.078;2022-12-29T10:32:51;19.00;;;4.03;;
53971;SDS011;40530;53.062;6.078;2022-12-29T10:35:20;29.48;;;4.20;;
53971;SDS011;40530;53.062;6.078;2022-12-29T10:40:19;20.80;;;2.83;;
53971;SDS011;40530;53.062;6.078;2022-12-29T10:42:50;23.67;;;3.50;;
53971;SDS011;40530;53.062;6.078;2022-12-29T10:45:17;22.35;;;3.75;;
53971;SDS011;40530;53.062;6.078;2022-12-29T10:47:49;21.60;;;3.35;;
53971;SDS011;40530;53.062;6.078;2022-12-29T10:50:16;21.33;;;4.30;;
53971;SDS011;40530;53.062;6.078;2022-12-29T10:52:42;20.10;;;3.75;;
53971;SDS011;40530;53.062;6.078;2022-12-29T10:55:12;29.23;;;7.35;;
53971;SDS011;40530;53.062;6.078;2022-12-29T10:57:39;23.60;;;3.78;;
53971;SDS011;40530;53.062;6.078;2022-12-29T11:00:11;29.10;;;5.45;;
53971;SDS011;40530;53.062;6.078;2022-12-29T11:07:46;32.20;;;4.45;;
53971;SDS011;40530;53.062;6.078;2022-12-29T11:13:28;31.48;;;4.15;;
53971;SDS011;40530;53.062;6.078;2022-12-29T11:15:54;21.40;;;4.43;;
53971;SDS011;40530;53.062;6.078;2022-12-29T11:18:25;27.17;;;4.05;;
53971;SDS011;40530;53.062;6.078;2022-12-29T11:20:55;29.60;;;4.65;;
53971;SDS011;40530;53.062;6.078;2022-12-29T11:23:34;27.95;;;5.40;;
53971;SDS011;40530;53.062;6.078;2022-12-29T11:28:36;31.30;;;5.55;;
53971;SDS011;40530;53.062;6.078;2022-12-29T11:31:03;27.60;;;3.97;;
53971;SDS011;40530;53.062;6.078;2022-12-29T11:33:30;33.85;;;5.53;;
53971;SDS011;40530;53.062;6.078;2022-12-29T11:38:35;27.17;;;6.07;;
53971;SDS011;40530;53.062;6.078;2022-12-29T11:41:02;32.13;;;5.65;;
53971;SDS011;40530;53.062;6.078;2022-12-29T11:43:31;27.23;;;4.95;;
53971;SDS011;40530;53.062;6.078;2022-12-29T11:46:00;32.20;;;4.72;;
53971;SDS011;40530;53.062;6.078;2022-12-29T11:48:38;32.63;;;4.75;;
53971;SDS011;40530;53.062;6.078;2022-12-29T11:51:05;35.35;;;5.38;;
53971;SDS011;40530;53.062;6.078;2022-12-29T11:55:58;41.55;;;7.57;;
53971;SDS011;40530;53.062;6.078;2022-12-29T11:58:31;25.67;;;5.20;;
53971;SDS011;40530;53.062;6.078;2022-12-29T12:01:00;31.45;;;5.20;;
53971;SDS011;40530;53.062;6.078;2022-12-29T12:03:27;24.83;;;5.57;;
53971;SDS011;40530;53.062;6.078;2022-12-29T12:06:03;30.02;;;5.00;;
53971;SDS011;40530;53.062;6.078;2022-12-29T12:08:46;33.88;;;5.63;;
53971;SDS011;40530;53.062;6.078;2022-12-29T12:11:22;24.75;;;5.43;;
53971;SDS011;40530;53.062;6.078;2022-12-29T12:13:58;29.13;;;5.25;;
53971;SDS011;40530;53.062;6.078;2022-12-29T12:16:28;24.48;;;6.40;;
53971;SDS011;40530;53.062;6.078;2022-12-29T12:18:58;28.37;;;6.47;;
53971;SDS011;40530;53.062;6.078;2022-12-29T12:21:31;23.00;;;5.18;;
53971;SDS011;40530;53.062;6.078;2022-12-29T12:26:37;13.50;;;2.90;;
53971;SDS011;40530;53.062;6.078;2022-12-29T12:29:16;18.10;;;3.70;;
53971;SDS011;40530;53.062;6.078;2022-12-29T12:32:01;14.68;;;2.25;;
53971;SDS011;40530;53.062;6.078;2022-12-29T12:34:35;12.32;;;2.58;;
53971;SDS011;40530;53.062;6.078;2022-12-29T12:37:15;19.27;;;3.38;;
53971;SDS011;40530;53.062;6.078;2022-12-29T12:44:55;18.52;;;3.33;;
53971;SDS011;40530;53.062;6.078;2022-12-29T12:47:41;13.18;;;2.25;;
53971;SDS011;40530;53.062;6.078;2022-12-29T12:50:32;14.95;;;2.08;;
53971;SDS011;40530;53.062;6.078;2022-12-29T13:03:26;12.75;;;2.83;;
53971;SDS011;40530;53.062;6.078;2022-12-29T13:08:52;19.50;;;3.60;;
53971;SDS011;40530;53.062;6.078;2022-12-29T13:11:24;16.50;;;3.10;;
53971;SDS011;40530;53.062;6.078;2022-12-29T13:16:39;14.27;;;2.90;;
53971;SDS011;40530;53.062;6.078;2022-12-29T13:19:15;14.88;;;2.28;;
53971;SDS011;40530;53.062;6.078;2022-12-29T13:21:47;14.93;;;2.95;;
53971;SDS011;40530;53.062;6.078;2022-12-29T13:26:50;19.23;;;3.47;;
53971;SDS011;40530;53.062;6.078;2022-12-29T13:29:21;13.20;;;2.20;;
53971;SDS011;40530;53.062;6.078;2022-12-29T13:36:58;10.48;;;2.15;;
53971;SDS011;40530;53.062;6.078;2022-12-29T13:39:43;13.35;;;2.60;;
53971;SDS011;40530;53.062;6.078;2022-12-29T13:42:11;14.15;;;3.10;;
53971;SDS011;40530;53.062;6.078;2022-12-29T13:44:45;14.05;;;2.65;;
53971;SDS011;40530;53.062;6.078;2022-12-29T13:47:20;18.90;;;2.92;;
53971;SDS011;40530;53.062;6.078;2022-12-29T13:49:47;14.43;;;4.28;;
53971;SDS011;40530;53.062;6.078;2022-12-29T13:57:49;16.65;;;2.60;;
53971;SDS011;40530;53.062;6.078;2022-12-29T14:00:16;19.90;;;7.15;;
53971;SDS011;40530;53.062;6.078;2022-12-29T14:02:50;13.27;;;2.20;;
53971;SDS011;40530;53.062;6.078;2022-12-29T14:07:48;19.27;;;4.93;;
53971;SDS011;40530;53.062;6.078;2022-12-29T14:10:33;13.60;;;2.65;;
53971;SDS011;40530;53.062;6.078;2022-12-29T14:13:10;9.85;;;1.77;;
53971;SDS011;40530;53.062;6.078;2022-12-29T14:15:38;13.50;;;2.20;;
53971;SDS011;40530;53.062;6.078;2022-12-29T14:18:19;15.07;;;2.80;;
53971;SDS011;40530;53.062;6.078;2022-12-29T14:20:49;13.57;;;2.70;;
53971;SDS011;40530;53.062;6.078;2022-12-29T14:23:26;13.15;;;3.83;;
53971;SDS011;40530;53.062;6.078;2022-12-29T14:30:51;23.05;;;3.25;;
53971;SDS011;40530;53.062;6.078;2022-12-29T14:33:18;17.52;;;3.13;;
53971;SDS011;40530;53.062;6.078;2022-12-29T14:35:44;23.10;;;3.97;;
53971;SDS011;40530;53.062;6.078;2022-12-29T14:38:32;16.10;;;3.25;;
53971;SDS011;40530;53.062;6.078;2022-12-29T14:41:33;16.15;;;2.75;;
53971;SDS011;40530;53.062;6.078;2022-12-29T14:43:58;15.02;;;2.95;;
53971;SDS011;40530;53.062;6.078;2022-12-29T14:46:25;17.88;;;3.40;;
53971;SDS011;40530;53.062;6.078;2022-12-29T14:48:55;16.92;;;3.88;;
53971;SDS011;40530;53.062;6.078;2022-12-29T14:51:30;12.75;;;3.63;;
53971;SDS011;40530;53.062;6.078;2022-12-29T14:53:56;18.10;;;3.55;;
53971;SDS011;40530;53.062;6.078;2022-12-29T14:56:27;18.95;;;3.47;;
53971;SDS011;40530;53.062;6.078;2022-12-29T14:58:57;16.23;;;3.03;;
53971;SDS011;40530;53.062;6.078;2022-12-29T15:01:41;24.83;;;4.22;;
53971;SDS011;40530;53.062;6.078;2022-12-29T15:04:18;20.35;;;5.30;;
53971;SDS011;40530;53.062;6.078;2022-12-29T15:06:44;19.55;;;6.07;;
53971;SDS011;40530;53.062;6.078;2022-12-29T15:11:57;18.13;;;3.85;;
53971;SDS011;40530;53.062;6.078;2022-12-29T15:16:55;17.60;;;3.25;;
53971;SDS011;40530;53.062;6.078;2022-12-29T15:19:22;20.80;;;2.30;;
53971;SDS011;40530;53.062;6.078;2022-12-29T15:21:48;22.63;;;2.70;;
53971;SDS011;40530;53.062;6.078;2022-12-29T15:24:14;19.05;;;2.90;;
53971;SDS011;40530;53.062;6.078;2022-12-29T15:26:42;19.95;;;2.13;;
53971;SDS011;40530;53.062;6.078;2022-12-29T15:31:54;22.50;;;4.28;;
53971;SDS011;40530;53.062;6.078;2022-12-29T15:34:21;16.27;;;2.17;;
53971;SDS011;40530;53.062;6.078;2022-12-29T15:36:47;21.48;;;3.83;;
53971;SDS011;40530;53.062;6.078;2022-12-29T15:39:19;17.98;;;2.65;;
53971;SDS011;40530;53.062;6.078;2022-12-29T15:44:41;15.75;;;3.22;;
53971;SDS011;40530;53.062;6.078;2022-12-29T15:47:16;13.23;;;2.97;;
53971;SDS011;40530;53.062;6.078;2022-12-29T15:49:43;17.88;;;2.33;;
53971;SDS011;40530;53.062;6.078;2022-12-29T15:52:09;15.52;;;3.50;;
53971;SDS011;40530;53.062;6.078;2022-12-29T15:54:36;14.07;;;2.28;;
53971;SDS011;40530;53.062;6.078;2022-12-29T15:57:02;16.05;;;3.85;;
53971;SDS011;40530;53.062;6.078;2022-12-29T15:59:29;17.90;;;2.58;;
53971;SDS011;40530;53.062;6.078;2022-12-29T16:01:56;14.23;;;1.95;;
53971;SDS011;40530;53.062;6.078;2022-12-29T16:04:23;10.93;;;3.03;;
53971;SDS011;40530;53.062;6.078;2022-12-29T16:07:00;12.90;;;3.75;;
53971;SDS011;40530;53.062;6.078;2022-12-29T16:09:31;11.32;;;3.15;;
53971;SDS011;40530;53.062;6.078;2022-12-29T16:11:58;5.45;;;1.08;;
53971;SDS011;40530;53.062;6.078;2022-12-29T16:14:30;8.02;;;2.28;;
53971;SDS011;40530;53.062;6.078;2022-12-29T16:16:58;11.60;;;3.80;;
53971;SDS011;40530;53.062;6.078;2022-12-29T16:19:29;9.32;;;2.22;;
53971;SDS011;40530;53.062;6.078;2022-12-29T16:21:57;6.68;;;1.33;;
53971;SDS011;40530;53.062;6.078;2022-12-29T16:24:25;13.65;;;4.50;;
53971;SDS011;40530;53.062;6.078;2022-12-29T16:27:00;11.18;;;3.38;;
53971;SDS011;40530;53.062;6.078;2022-12-29T16:29:28;10.57;;;2.28;;
53971;SDS011;40530;53.062;6.078;2022-12-29T16:31:56;11.98;;;1.90;;
53971;SDS011;40530;53.062;6.078;2022-12-29T16:36:57;13.55;;;3.58;;
53971;SDS011;40530;53.062;6.078;2022-12-29T16:41:56;23.42;;;4.22;;
53971;SDS011;40530;53.062;6.078;2022-12-29T16:44:23;22.63;;;3.67;;
53971;SDS011;40530;53.062;6.078;2022-12-29T16:49:52;26.50;;;6.00;;
53971;SDS011;40530;53.062;6.078;2022-12-29T16:52:33;21.70;;;3.40;;
53971;SDS011;40530;53.062;6.078;2022-12-29T16:54:59;20.48;;;2.47;;
53971;SDS011;40530;53.062;6.078;2022-12-29T16:57:27;17.08;;;3.72;;
53971;SDS011;40530;53.062;6.078;2022-12-29T16:59:55;14.40;;;4.22;;
53971;SDS011;40530;53.062;6.078;2022-12-29T17:02:22;17.48;;;3.30;;
53971;SDS011;40530;53.062;6.078;2022-12-29T17:04:49;17.38;;;3.42;;
53971;SDS011;40530;53.062;6.078;2022-12-29T17:07:18;18.45;;;3.42;;
53971;SDS011;40530;53.062;6.078;2022-12-29T17:09:44;23.58;;;4.15;;